sensor_id;sensor_type;location;lat;lon;timestamp;P1;durP1;ratioP1;P2;durP2;ratioP2
23747;SDS011;12054;53.662;10.126;2023-08-17T00:02:20;5.78;;;1.75;;
23747;SDS011;12054;53.662;10.126;2023-08-17T00:04:46;4.38;;;1.60;;
23747;SDS011;12054;53.662;10.126;2023-08-17T00:07:11;3.30;;;1.63;;
23747;SDS011;12054;53.662;10.126;2023-08-17T00:09:36;4.60;;;1.80;;
23747;SDS011;12054;53.662;10.126;2023-08-17T00:12:04;3.03;;;1.70;;
23747;SDS011;12054;53.662;10.126;2023-08-17T00:14:30;3.90;;;1.60;;
23747;SDS011;12054;53.662;10.126;2023-08-17T00:16:55;5.60;;;1.58;;
23747;SDS011;12054;53.662;10.126;2023-08-17T00:19:21;4.18;;;1.83;;
23747;SDS011;12054;53.662;10.126;2023-08-17T00:21:47;6.38;;;1.63;;
23747;SDS011;12054;53.662;10.126;2023-08-17T00:24:12;3.65;;;1.48;;
23747;SDS011;12054;53.662;10.126;2023-08-17T00:26:38;3.60;;;1.98;;
23747;SDS011;12054;53.662;10.126;2023-08-17T00:29:03;4.85;;;1.80;;
23747;SDS011;12054;53.662;10.126;2023-08-17T00:31:29;9.50;;;2.25;;
23747;SDS011;12054;53.662;10.126;2023-08-17T00:33:54;1.80;;;1.60;;
23747;SDS011;12054;53.662;10.126;2023-08-17T00:36:20;5.90;;;1.95;;
23747;SDS011;12054;53.662;10.126;2023-08-17T00:38:46;4.72;;;1.83;;
23747;SDS011;12054;53.662;10.126;2023-08-17T00:41:11;4.57;;;1.88;;
23747;SDS011;12054;53.662;10.126;2023-08-17T00:43:36;3.72;;;1.60;;
23747;SDS011;12054;53.662;10.126;2023-08-17T00:46:02;4.28;;;2.10;;
23747;SDS011;12054;53.662;10.126;2023-08-17T00:48:28;3.85;;;2.10;;
23747;SDS011;12054;53.662;10.126;2023-08-17T00:50:54;2.95;;;1.58;;
23747;SDS011;12054;53.662;10.126;2023-08-17T00:53:21;4.75;;;1.85;;
23747;SDS011;12054;53.662;10.126;2023-08-17T00:55:47;3.75;;;1.95;;
23747;SDS011;12054;53.662;10.126;2023-08-17T00:58:13;4.82;;;1.70;;
23747;SDS011;12054;53.662;10.126;2023-08-17T01:00:39;3.15;;;1.77;;
23747;SDS011;12054;53.662;10.126;2023-08-17T01:03:05;4.20;;;1.90;;
23747;SDS011;12054;53.662;10.126;2023-08-17T01:05:31;3.88;;;1.98;;
23747;SDS011;12054;53.662;10.126;2023-08-17T01:07:57;6.60;;;1.77;;
23747;SDS011;12054;53.662;10.126;2023-08-17T01:10:24;5.20;;;1.98;;
23747;SDS011;12054;53.662;10.126;2023-08-17T01:12:58;4.38;;;1.55;;
23747;SDS011;12054;53.662;10.126;2023-08-17T01:15:31;7.05;;;2.58;;
23747;SDS011;12054;53.662;10.126;2023-08-17T01:18:21;3.17;;;1.80;;
23747;SDS011;12054;53.662;10.126;2023-08-17T01:20:50;3.45;;;1.73;;
23747;SDS011;12054;53.662;10.126;2023-08-17T01:23:18;6.07;;;1.77;;
23747;SDS011;12054;53.662;10.126;2023-08-17T01:25:44;4.13;;;1.88;;
23747;SDS011;12054;53.662;10.126;2023-08-17T01:28:10;4.90;;;1.77;;
23747;SDS011;12054;53.662;10.126;2023-08-17T01:30:39;4.60;;;2.00;;
23747;SDS011;12054;53.662;10.126;2023-08-17T01:33:17;4.78;;;1.70;;
23747;SDS011;12054;53.662;10.126;2023-08-17T01:36:04;5.70;;;1.75;;
23747;SDS011;12054;53.662;10.126;2023-08-17T01:38:30;4.50;;;1.63;;
23747;SDS011;12054;53.662;10.126;2023-08-17T01:40:57;5.75;;;1.65;;
23747;SDS011;12054;53.662;10.126;2023-08-17T01:43:25;1.88;;;1.70;;
23747;SDS011;12054;53.662;10.126;2023-08-17T01:45:53;6.05;;;1.77;;
23747;SDS011;12054;53.662;10.126;2023-08-17T01:48:19;3.33;;;1.90;;
23747;SDS011;12054;53.662;10.126;2023-08-17T01:50:44;5.03;;;1.70;;
23747;SDS011;12054;53.662;10.126;2023-08-17T01:53:09;5.53;;;1.70;;
23747;SDS011;12054;53.662;10.126;2023-08-17T01:55:36;4.28;;;1.80;;
23747;SDS011;12054;53.662;10.126;2023-08-17T01:58:02;4.97;;;1.58;;
23747;SDS011;12054;53.662;10.126;2023-08-17T02:00:28;6.47;;;1.67;;
23747;SDS011;12054;53.662;10.126;2023-08-17T02:02:53;6.47;;;2.03;;
23747;SDS011;12054;53.662;10.126;2023-08-17T02:05:19;3.10;;;1.70;;
23747;SDS011;12054;53.662;10.126;2023-08-17T02:07:44;4.68;;;1.50;;
23747;SDS011;12054;53.662;10.126;2023-08-17T02:10:10;5.18;;;1.50;;
23747;SDS011;12054;53.662;10.126;2023-08-17T02:12:35;4.97;;;1.60;;
23747;SDS011;12054;53.662;10.126;2023-08-17T02:15:01;5.45;;;2.08;;
23747;SDS011;12054;53.662;10.126;2023-08-17T02:17:26;3.53;;;1.60;;
23747;SDS011;12054;53.662;10.126;2023-08-17T02:19:52;3.60;;;1.58;;
23747;SDS011;12054;53.662;10.126;2023-08-17T02:22:17;3.45;;;1.80;;
23747;SDS011;12054;53.662;10.126;2023-08-17T02:24:43;3.90;;;1.70;;
23747;SDS011;12054;53.662;10.126;2023-08-17T02:27:08;4.57;;;2.03;;
23747;SDS011;12054;53.662;10.126;2023-08-17T02:29:34;9.18;;;1.70;;
23747;SDS011;12054;53.662;10.126;2023-08-17T02:32:00;4.13;;;2.08;;
23747;SDS011;12054;53.662;10.126;2023-08-17T02:34:25;3.33;;;1.80;;
23747;SDS011;12054;53.662;10.126;2023-08-17T02:36:51;2.70;;;1.60;;
23747;SDS011;12054;53.662;10.126;2023-08-17T02:39:16;3.35;;;1.55;;
23747;SDS011;12054;53.662;10.126;2023-08-17T02:41:41;3.13;;;1.50;;
23747;SDS011;12054;53.662;10.126;2023-08-17T02:44:09;6.00;;;1.55;;
23747;SDS011;12054;53.662;10.126;2023-08-17T02:46:35;5.05;;;1.70;;
23747;SDS011;12054;53.662;10.126;2023-08-17T02:49:01;4.03;;;1.65;;
23747;SDS011;12054;53.662;10.126;2023-08-17T02:51:26;3.38;;;1.77;;
23747;SDS011;12054;53.662;10.126;2023-08-17T02:53:52;3.05;;;1.52;;
23747;SDS011;12054;53.662;10.126;2023-08-17T02:56:17;1.98;;;1.48;;
23747;SDS011;12054;53.662;10.126;2023-08-17T02:58:43;3.40;;;1.80;;
23747;SDS011;12054;53.662;10.126;2023-08-17T03:01:08;3.53;;;1.42;;
23747;SDS011;12054;53.662;10.126;2023-08-17T03:03:34;3.50;;;1.50;;
23747;SDS011;12054;53.662;10.126;2023-08-17T03:06:00;5.05;;;1.70;;
23747;SDS011;12054;53.662;10.126;2023-08-17T03:08:27;4.07;;;1.60;;
23747;SDS011;12054;53.662;10.126;2023-08-17T03:10:52;1.75;;;1.48;;
23747;SDS011;12054;53.662;10.126;2023-08-17T03:13:17;2.05;;;1.45;;
23747;SDS011;12054;53.662;10.126;2023-08-17T03:15:43;2.78;;;1.55;;
23747;SDS011;12054;53.662;10.126;2023-08-17T03:18:08;4.05;;;1.58;;
23747;SDS011;12054;53.662;10.126;2023-08-17T03:20:34;4.53;;;1.65;;
23747;SDS011;12054;53.662;10.126;2023-08-17T03:23:00;3.55;;;1.63;;
23747;SDS011;12054;53.662;10.126;2023-08-17T03:25:25;3.97;;;1.60;;
23747;SDS011;12054;53.662;10.126;2023-08-17T03:27:51;4.80;;;1.83;;
23747;SDS011;12054;53.662;10.126;2023-08-17T03:30:16;5.72;;;1.83;;
23747;SDS011;12054;53.662;10.126;2023-08-17T03:32:42;4.00;;;1.48;;
23747;SDS011;12054;53.662;10.126;2023-08-17T03:35:07;4.45;;;1.50;;
23747;SDS011;12054;53.662;10.126;2023-08-17T03:37:33;5.85;;;1.80;;
23747;SDS011;12054;53.662;10.126;2023-08-17T03:39:58;4.38;;;1.60;;
23747;SDS011;12054;53.662;10.126;2023-08-17T03:42:25;4.13;;;1.63;;
23747;SDS011;12054;53.662;10.126;2023-08-17T03:44:51;3.47;;;1.70;;
23747;SDS011;12054;53.662;10.126;2023-08-17T03:47:17;3.65;;;1.52;;
23747;SDS011;12054;53.662;10.126;2023-08-17T03:49:42;2.75;;;1.52;;
23747;SDS011;12054;53.662;10.126;2023-08-17T03:52:08;16.20;;;1.75;;
23747;SDS011;12054;53.662;10.126;2023-08-17T03:54:33;3.40;;;1.50;;
23747;SDS011;12054;53.662;10.126;2023-08-17T03:56:59;5.68;;;1.70;;
23747;SDS011;12054;53.662;10.126;2023-08-17T03:59:24;2.85;;;1.65;;
23747;SDS011;12054;53.662;10.126;2023-08-17T04:01:50;3.35;;;1.60;;
23747;SDS011;12054;53.662;10.126;2023-08-17T04:04:16;5.93;;;1.67;;
23747;SDS011;12054;53.662;10.126;2023-08-17T04:06:41;4.47;;;1.63;;
23747;SDS011;12054;53.662;10.126;2023-08-17T04:09:07;3.72;;;1.80;;
23747;SDS011;12054;53.662;10.126;2023-08-17T04:11:34;4.13;;;1.98;;
23747;SDS011;12054;53.662;10.126;2023-08-17T04:14:01;4.45;;;1.65;;
23747;SDS011;12054;53.662;10.126;2023-08-17T04:16:26;4.80;;;1.90;;
23747;SDS011;12054;53.662;10.126;2023-08-17T04:18:52;4.75;;;1.80;;
23747;SDS011;12054;53.662;10.126;2023-08-17T04:21:17;7.47;;;2.05;;
23747;SDS011;12054;53.662;10.126;2023-08-17T04:23:43;4.00;;;1.60;;
23747;SDS011;12054;53.662;10.126;2023-08-17T04:26:09;2.92;;;1.70;;
23747;SDS011;12054;53.662;10.126;2023-08-17T04:28:34;4.90;;;1.80;;
23747;SDS011;12054;53.662;10.126;2023-08-17T04:31:00;2.60;;;1.60;;
23747;SDS011;12054;53.662;10.126;2023-08-17T04:33:25;3.40;;;1.80;;
23747;SDS011;12054;53.662;10.126;2023-08-17T04:35:51;2.55;;;1.70;;
23747;SDS011;12054;53.662;10.126;2023-08-17T04:38:16;3.55;;;1.70;;
23747;SDS011;12054;53.662;10.126;2023-08-17T04:40:42;3.47;;;1.70;;
23747;SDS011;12054;53.662;10.126;2023-08-17T04:43:09;3.50;;;1.73;;
23747;SDS011;12054;53.662;10.126;2023-08-17T04:45:35;4.10;;;1.98;;
23747;SDS011;12054;53.662;10.126;2023-08-17T04:48:01;3.15;;;1.70;;
23747;SDS011;12054;53.662;10.126;2023-08-17T04:50:26;6.82;;;1.70;;
23747;SDS011;12054;53.662;10.126;2023-08-17T04:52:52;2.22;;;1.80;;
23747;SDS011;12054;53.662;10.126;2023-08-17T04:55:17;3.83;;;1.90;;
23747;SDS011;12054;53.662;10.126;2023-08-17T04:57:43;5.45;;;1.83;;
23747;SDS011;12054;53.662;10.126;2023-08-17T05:00:08;3.33;;;1.80;;
23747;SDS011;12054;53.662;10.126;2023-08-17T05:02:35;7.45;;;1.92;;
23747;SDS011;12054;53.662;10.126;2023-08-17T05:05:04;4.43;;;1.52;;
23747;SDS011;12054;53.662;10.126;2023-08-17T05:07:31;4.68;;;1.95;;
23747;SDS011;12054;53.662;10.126;2023-08-17T05:09:57;4.80;;;1.83;;
23747;SDS011;12054;53.662;10.126;2023-08-17T05:12:23;6.50;;;1.80;;
23747;SDS011;12054;53.662;10.126;2023-08-17T05:14:48;4.43;;;1.60;;
23747;SDS011;12054;53.662;10.126;2023-08-17T05:17:14;3.63;;;1.70;;
23747;SDS011;12054;53.662;10.126;2023-08-17T05:19:39;3.15;;;1.40;;
23747;SDS011;12054;53.662;10.126;2023-08-17T05:22:12;5.22;;;1.73;;
23747;SDS011;12054;53.662;10.126;2023-08-17T05:24:38;3.03;;;1.58;;
23747;SDS011;12054;53.662;10.126;2023-08-17T05:27:04;6.07;;;2.50;;
23747;SDS011;12054;53.662;10.126;2023-08-17T05:29:30;5.32;;;1.75;;
23747;SDS011;12054;53.662;10.126;2023-08-17T05:31:57;3.85;;;1.70;;
23747;SDS011;12054;53.662;10.126;2023-08-17T05:34:23;4.30;;;1.90;;
23747;SDS011;12054;53.662;10.126;2023-08-17T05:36:48;8.68;;;2.83;;
23747;SDS011;12054;53.662;10.126;2023-08-17T05:39:14;2.63;;;1.55;;
23747;SDS011;12054;53.662;10.126;2023-08-17T05:41:39;3.92;;;2.10;;
23747;SDS011;12054;53.662;10.126;2023-08-17T05:44:05;2.67;;;1.80;;
23747;SDS011;12054;53.662;10.126;2023-08-17T05:46:32;4.80;;;2.40;;
23747;SDS011;12054;53.662;10.126;2023-08-17T05:48:57;5.13;;;2.13;;
23747;SDS011;12054;53.662;10.126;2023-08-17T05:51:24;4.70;;;2.17;;
23747;SDS011;12054;53.662;10.126;2023-08-17T05:53:49;4.97;;;2.13;;
23747;SDS011;12054;53.662;10.126;2023-08-17T05:56:15;5.30;;;2.25;;
23747;SDS011;12054;53.662;10.126;2023-08-17T05:58:40;5.15;;;2.58;;
23747;SDS011;12054;53.662;10.126;2023-08-17T06:01:06;6.30;;;2.40;;
23747;SDS011;12054;53.662;10.126;2023-08-17T06:03:36;4.15;;;2.35;;
23747;SDS011;12054;53.662;10.126;2023-08-17T06:06:02;5.10;;;2.63;;
23747;SDS011;12054;53.662;10.126;2023-08-17T06:08:31;7.80;;;2.88;;
23747;SDS011;12054;53.662;10.126;2023-08-17T06:10:56;6.15;;;2.60;;
23747;SDS011;12054;53.662;10.126;2023-08-17T06:13:22;6.20;;;2.63;;
23747;SDS011;12054;53.662;10.126;2023-08-17T06:15:48;4.22;;;2.53;;
23747;SDS011;12054;53.662;10.126;2023-08-17T06:18:14;4.88;;;2.40;;
23747;SDS011;12054;53.662;10.126;2023-08-17T06:20:39;5.35;;;2.97;;
23747;SDS011;12054;53.662;10.126;2023-08-17T06:23:05;5.00;;;2.88;;
23747;SDS011;12054;53.662;10.126;2023-08-17T06:25:31;5.80;;;3.17;;
23747;SDS011;12054;53.662;10.126;2023-08-17T06:27:56;5.40;;;3.05;;
23747;SDS011;12054;53.662;10.126;2023-08-17T06:30:21;7.13;;;2.83;;
23747;SDS011;12054;53.662;10.126;2023-08-17T06:32:47;4.85;;;3.13;;
23747;SDS011;12054;53.662;10.126;2023-08-17T06:35:12;5.40;;;3.20;;
23747;SDS011;12054;53.662;10.126;2023-08-17T06:37:38;6.97;;;3.63;;
23747;SDS011;12054;53.662;10.126;2023-08-17T06:40:04;5.47;;;3.10;;
23747;SDS011;12054;53.662;10.126;2023-08-17T06:42:34;5.28;;;3.17;;
23747;SDS011;12054;53.662;10.126;2023-08-17T06:44:59;7.20;;;3.55;;
23747;SDS011;12054;53.662;10.126;2023-08-17T06:47:25;8.10;;;4.03;;
23747;SDS011;12054;53.662;10.126;2023-08-17T06:49:50;5.10;;;3.25;;
23747;SDS011;12054;53.662;10.126;2023-08-17T06:52:16;7.28;;;3.60;;
23747;SDS011;12054;53.662;10.126;2023-08-17T06:54:41;4.32;;;3.15;;
23747;SDS011;12054;53.662;10.126;2023-08-17T06:57:07;6.78;;;3.58;;
23747;SDS011;12054;53.662;10.126;2023-08-17T06:59:32;4.47;;;3.20;;
23747;SDS011;12054;53.662;10.126;2023-08-17T07:01:58;5.60;;;3.30;;
23747;SDS011;12054;53.662;10.126;2023-08-17T07:04:24;6.85;;;3.60;;
23747;SDS011;12054;53.662;10.126;2023-08-17T07:06:50;9.57;;;3.78;;
23747;SDS011;12054;53.662;10.126;2023-08-17T07:09:15;5.60;;;3.28;;
23747;SDS011;12054;53.662;10.126;2023-08-17T07:11:41;8.05;;;3.33;;
23747;SDS011;12054;53.662;10.126;2023-08-17T07:14:06;4.95;;;3.13;;
23747;SDS011;12054;53.662;10.126;2023-08-17T07:16:32;6.82;;;3.25;;
23747;SDS011;12054;53.662;10.126;2023-08-17T07:18:58;6.15;;;3.30;;
23747;SDS011;12054;53.662;10.126;2023-08-17T07:21:23;4.05;;;3.30;;
23747;SDS011;12054;53.662;10.126;2023-08-17T07:23:50;6.03;;;3.15;;
23747;SDS011;12054;53.662;10.126;2023-08-17T07:26:15;7.93;;;3.70;;
23747;SDS011;12054;53.662;10.126;2023-08-17T07:28:43;5.63;;;3.92;;
23747;SDS011;12054;53.662;10.126;2023-08-17T07:31:09;5.82;;;3.70;;
23747;SDS011;12054;53.662;10.126;2023-08-17T07:33:35;6.43;;;3.40;;
23747;SDS011;12054;53.662;10.126;2023-08-17T07:36:00;6.65;;;4.15;;
23747;SDS011;12054;53.662;10.126;2023-08-17T07:38:26;6.97;;;3.88;;
23747;SDS011;12054;53.662;10.126;2023-08-17T07:40:51;5.85;;;3.63;;
23747;SDS011;12054;53.662;10.126;2023-08-17T07:43:17;7.22;;;4.03;;
23747;SDS011;12054;53.662;10.126;2023-08-17T07:45:42;6.88;;;3.85;;
23747;SDS011;12054;53.662;10.126;2023-08-17T07:48:08;7.00;;;3.92;;
23747;SDS011;12054;53.662;10.126;2023-08-17T07:50:34;6.07;;;4.10;;
23747;SDS011;12054;53.662;10.126;2023-08-17T07:52:59;7.43;;;4.13;;
23747;SDS011;12054;53.662;10.126;2023-08-17T07:55:25;7.93;;;4.30;;
23747;SDS011;12054;53.662;10.126;2023-08-17T07:57:51;7.50;;;4.60;;
23747;SDS011;12054;53.662;10.126;2023-08-17T08:00:17;7.28;;;4.43;;
23747;SDS011;12054;53.662;10.126;2023-08-17T08:02:42;5.97;;;4.20;;
23747;SDS011;12054;53.662;10.126;2023-08-17T08:05:08;7.60;;;4.70;;
23747;SDS011;12054;53.662;10.126;2023-08-17T08:07:33;7.30;;;4.30;;
23747;SDS011;12054;53.662;10.126;2023-08-17T08:09:59;8.20;;;4.65;;
23747;SDS011;12054;53.662;10.126;2023-08-17T08:12:24;6.70;;;4.45;;
23747;SDS011;12054;53.662;10.126;2023-08-17T08:14:50;8.30;;;4.20;;
23747;SDS011;12054;53.662;10.126;2023-08-17T08:17:16;7.55;;;4.03;;
23747;SDS011;12054;53.662;10.126;2023-08-17T08:19:41;6.10;;;4.28;;
23747;SDS011;12054;53.662;10.126;2023-08-17T08:22:07;6.00;;;4.30;;
23747;SDS011;12054;53.662;10.126;2023-08-17T08:24:32;7.88;;;4.10;;
23747;SDS011;12054;53.662;10.126;2023-08-17T08:26:59;4.82;;;3.60;;
23747;SDS011;12054;53.662;10.126;2023-08-17T08:29:26;5.60;;;2.90;;
23747;SDS011;12054;53.662;10.126;2023-08-17T08:31:52;6.25;;;2.90;;
23747;SDS011;12054;53.662;10.126;2023-08-17T08:34:18;5.35;;;3.10;;
23747;SDS011;12054;53.662;10.126;2023-08-17T08:36:44;6.68;;;3.53;;
23747;SDS011;12054;53.662;10.126;2023-08-17T08:39:09;5.60;;;3.30;;
23747;SDS011;12054;53.662;10.126;2023-08-17T08:41:35;5.78;;;3.08;;
23747;SDS011;12054;53.662;10.126;2023-08-17T08:44:02;2.92;;;2.55;;
23747;SDS011;12054;53.662;10.126;2023-08-17T08:46:29;6.28;;;2.92;;
23747;SDS011;12054;53.662;10.126;2023-08-17T08:48:57;5.13;;;2.50;;
23747;SDS011;12054;53.662;10.126;2023-08-17T08:51:25;3.33;;;2.63;;
23747;SDS011;12054;53.662;10.126;2023-08-17T08:53:59;5.85;;;2.42;;
23747;SDS011;12054;53.662;10.126;2023-08-17T08:56:31;3.55;;;2.00;;
23747;SDS011;12054;53.662;10.126;2023-08-17T08:58:58;2.22;;;1.70;;
23747;SDS011;12054;53.662;10.126;2023-08-17T09:01:27;2.55;;;1.90;;
23747;SDS011;12054;53.662;10.126;2023-08-17T09:03:55;2.08;;;1.58;;
23747;SDS011;12054;53.662;10.126;2023-08-17T09:06:23;3.03;;;1.90;;
23747;SDS011;12054;53.662;10.126;2023-08-17T09:08:51;2.45;;;1.80;;
23747;SDS011;12054;53.662;10.126;2023-08-17T09:11:17;3.25;;;2.13;;
23747;SDS011;12054;53.662;10.126;2023-08-17T09:13:42;2.72;;;2.25;;
23747;SDS011;12054;53.662;10.126;2023-08-17T09:16:08;4.30;;;2.10;;
23747;SDS011;12054;53.662;10.126;2023-08-17T09:18:34;4.25;;;2.20;;
23747;SDS011;12054;53.662;10.126;2023-08-17T09:21:00;4.45;;;2.50;;
23747;SDS011;12054;53.662;10.126;2023-08-17T09:23:25;3.10;;;2.55;;
23747;SDS011;12054;53.662;10.126;2023-08-17T09:25:51;3.13;;;2.13;;
23747;SDS011;12054;53.662;10.126;2023-08-17T09:28:17;3.03;;;2.65;;
23747;SDS011;12054;53.662;10.126;2023-08-17T09:30:51;4.38;;;2.72;;
23747;SDS011;12054;53.662;10.126;2023-08-17T09:33:29;3.20;;;2.90;;
23747;SDS011;12054;53.662;10.126;2023-08-17T09:35:56;3.70;;;2.80;;
23747;SDS011;12054;53.662;10.126;2023-08-17T09:38:22;3.25;;;2.95;;
23747;SDS011;12054;53.662;10.126;2023-08-17T09:40:48;6.35;;;3.05;;
23747;SDS011;12054;53.662;10.126;2023-08-17T09:43:15;6.05;;;2.83;;
23747;SDS011;12054;53.662;10.126;2023-08-17T09:45:42;5.90;;;3.35;;
23747;SDS011;12054;53.662;10.126;2023-08-17T09:48:14;4.90;;;3.60;;
23747;SDS011;12054;53.662;10.126;2023-08-17T09:50:41;4.43;;;3.22;;
23747;SDS011;12054;53.662;10.126;2023-08-17T09:53:08;7.72;;;2.40;;
23747;SDS011;12054;53.662;10.126;2023-08-17T09:55:41;2.00;;;1.38;;
23747;SDS011;12054;53.662;10.126;2023-08-17T09:58:08;3.00;;;2.28;;
23747;SDS011;12054;53.662;10.126;2023-08-17T10:00:33;2.33;;;1.55;;
23747;SDS011;12054;53.662;10.126;2023-08-17T10:03:01;2.05;;;1.80;;
23747;SDS011;12054;53.662;10.126;2023-08-17T10:05:28;2.33;;;1.85;;
23747;SDS011;12054;53.662;10.126;2023-08-17T10:07:58;1.50;;;1.40;;
23747;SDS011;12054;53.662;10.126;2023-08-17T10:10:26;2.28;;;1.90;;
23747;SDS011;12054;53.662;10.126;2023-08-17T10:12:57;2.42;;;1.73;;
23747;SDS011;12054;53.662;10.126;2023-08-17T10:15:31;2.03;;;1.83;;
23747;SDS011;12054;53.662;10.126;2023-08-17T10:18:02;2.72;;;1.73;;
23747;SDS011;12054;53.662;10.126;2023-08-17T10:21:07;2.67;;;1.70;;
23747;SDS011;12054;53.662;10.126;2023-08-17T10:23:37;1.67;;;1.50;;
23747;SDS011;12054;53.662;10.126;2023-08-17T10:26:04;2.05;;;1.40;;
23747;SDS011;12054;53.662;10.126;2023-08-17T10:28:31;1.90;;;1.70;;
23747;SDS011;12054;53.662;10.126;2023-08-17T10:30:57;3.92;;;1.73;;
23747;SDS011;12054;53.662;10.126;2023-08-17T10:33:23;2.83;;;1.45;;
23747;SDS011;12054;53.662;10.126;2023-08-17T10:35:51;3.45;;;2.33;;
23747;SDS011;12054;53.662;10.126;2023-08-17T10:38:17;3.75;;;1.50;;
23747;SDS011;12054;53.662;10.126;2023-08-17T10:40:42;2.50;;;1.70;;
23747;SDS011;12054;53.662;10.126;2023-08-17T10:43:08;2.75;;;1.75;;
23747;SDS011;12054;53.662;10.126;2023-08-17T10:45:37;2.50;;;1.60;;
23747;SDS011;12054;53.662;10.126;2023-08-17T10:50:37;2.08;;;1.88;;
23747;SDS011;12054;53.662;10.126;2023-08-17T10:53:04;4.05;;;2.05;;
23747;SDS011;12054;53.662;10.126;2023-08-17T10:55:38;1.83;;;1.63;;
23747;SDS011;12054;53.662;10.126;2023-08-17T10:58:10;2.55;;;1.83;;
23747;SDS011;12054;53.662;10.126;2023-08-17T11:00:37;4.80;;;1.92;;
23747;SDS011;12054;53.662;10.126;2023-08-17T11:03:04;4.22;;;2.05;;
23747;SDS011;12054;53.662;10.126;2023-08-17T11:05:47;4.78;;;2.50;;
23747;SDS011;12054;53.662;10.126;2023-08-17T11:10:57;4.60;;;2.53;;
23747;SDS011;12054;53.662;10.126;2023-08-17T11:13:23;3.97;;;2.50;;
23747;SDS011;12054;53.662;10.126;2023-08-17T11:15:49;4.38;;;2.50;;
23747;SDS011;12054;53.662;10.126;2023-08-17T11:18:15;4.15;;;2.92;;
23747;SDS011;12054;53.662;10.126;2023-08-17T11:20:41;4.53;;;3.25;;
23747;SDS011;12054;53.662;10.126;2023-08-17T11:23:07;4.80;;;2.85;;
23747;SDS011;12054;53.662;10.126;2023-08-17T11:25:33;5.07;;;2.83;;
23747;SDS011;12054;53.662;10.126;2023-08-17T11:28:00;6.22;;;3.42;;
23747;SDS011;12054;53.662;10.126;2023-08-17T11:30:26;4.95;;;3.30;;
23747;SDS011;12054;53.662;10.126;2023-08-17T11:32:53;4.18;;;2.67;;
23747;SDS011;12054;53.662;10.126;2023-08-17T11:35:20;4.72;;;2.75;;
23747;SDS011;12054;53.662;10.126;2023-08-17T11:37:46;4.10;;;2.95;;
23747;SDS011;12054;53.662;10.126;2023-08-17T11:40:13;4.25;;;2.80;;
23747;SDS011;12054;53.662;10.126;2023-08-17T11:42:39;4.93;;;2.92;;
23747;SDS011;12054;53.662;10.126;2023-08-17T11:45:05;5.55;;;3.22;;
23747;SDS011;12054;53.662;10.126;2023-08-17T11:47:31;6.72;;;3.10;;
23747;SDS011;12054;53.662;10.126;2023-08-17T11:50:01;3.70;;;2.67;;
23747;SDS011;12054;53.662;10.126;2023-08-17T11:52:28;4.55;;;2.83;;
23747;SDS011;12054;53.662;10.126;2023-08-17T11:54:55;3.25;;;2.55;;
23747;SDS011;12054;53.662;10.126;2023-08-17T11:57:21;3.17;;;2.45;;
23747;SDS011;12054;53.662;10.126;2023-08-17T11:59:47;4.00;;;2.90;;
23747;SDS011;12054;53.662;10.126;2023-08-17T12:02:13;5.35;;;3.05;;
23747;SDS011;12054;53.662;10.126;2023-08-17T12:04:38;3.08;;;2.50;;
23747;SDS011;12054;53.662;10.126;2023-08-17T12:07:04;3.85;;;2.70;;
23747;SDS011;12054;53.662;10.126;2023-08-17T12:09:33;4.00;;;2.55;;
23747;SDS011;12054;53.662;10.126;2023-08-17T12:12:00;4.10;;;2.40;;
23747;SDS011;12054;53.662;10.126;2023-08-17T12:14:26;2.50;;;1.98;;
23747;SDS011;12054;53.662;10.126;2023-08-17T12:16:53;4.95;;;2.53;;
23747;SDS011;12054;53.662;10.126;2023-08-17T12:19:19;1.80;;;1.70;;
23747;SDS011;12054;53.662;10.126;2023-08-17T12:21:48;4.60;;;2.20;;
23747;SDS011;12054;53.662;10.126;2023-08-17T12:24:14;2.58;;;1.80;;
23747;SDS011;12054;53.662;10.126;2023-08-17T12:26:41;4.45;;;2.17;;
23747;SDS011;12054;53.662;10.126;2023-08-17T12:29:08;2.30;;;1.95;;
23747;SDS011;12054;53.662;10.126;2023-08-17T12:31:34;3.00;;;2.35;;
23747;SDS011;12054;53.662;10.126;2023-08-17T12:34:00;3.53;;;2.00;;
23747;SDS011;12054;53.662;10.126;2023-08-17T12:36:25;3.90;;;2.13;;
23747;SDS011;12054;53.662;10.126;2023-08-17T12:38:51;2.80;;;2.20;;
23747;SDS011;12054;53.662;10.126;2023-08-17T12:41:17;3.53;;;2.15;;
23747;SDS011;12054;53.662;10.126;2023-08-17T12:43:43;3.78;;;2.50;;
23747;SDS011;12054;53.662;10.126;2023-08-17T12:46:09;2.53;;;2.25;;
23747;SDS011;12054;53.662;10.126;2023-08-17T12:48:35;2.63;;;2.20;;
23747;SDS011;12054;53.662;10.126;2023-08-17T12:51:01;3.28;;;2.80;;
23747;SDS011;12054;53.662;10.126;2023-08-17T12:53:27;3.17;;;2.45;;
23747;SDS011;12054;53.662;10.126;2023-08-17T12:55:52;4.95;;;2.75;;
23747;SDS011;12054;53.662;10.126;2023-08-17T12:58:18;6.30;;;3.28;;
23747;SDS011;12054;53.662;10.126;2023-08-17T13:00:43;4.82;;;3.78;;
23747;SDS011;12054;53.662;10.126;2023-08-17T13:03:09;5.00;;;3.80;;
23747;SDS011;12054;53.662;10.126;2023-08-17T13:05:34;5.40;;;3.42;;
23747;SDS011;12054;53.662;10.126;2023-08-17T13:08:03;5.50;;;4.10;;
23747;SDS011;12054;53.662;10.126;2023-08-17T13:10:28;6.00;;;4.15;;
23747;SDS011;12054;53.662;10.126;2023-08-17T13:12:54;5.35;;;4.32;;
23747;SDS011;12054;53.662;10.126;2023-08-17T13:15:24;5.60;;;4.07;;
23747;SDS011;12054;53.662;10.126;2023-08-17T13:17:50;5.75;;;2.20;;
23747;SDS011;12054;53.662;10.126;2023-08-17T13:20:16;3.00;;;2.20;;
23747;SDS011;12054;53.662;10.126;2023-08-17T13:22:41;4.00;;;2.20;;
23747;SDS011;12054;53.662;10.126;2023-08-17T13:25:07;2.03;;;1.45;;
23747;SDS011;12054;53.662;10.126;2023-08-17T13:27:33;2.40;;;1.40;;
23747;SDS011;12054;53.662;10.126;2023-08-17T13:29:58;1.40;;;1.30;;
23747;SDS011;12054;53.662;10.126;2023-08-17T13:32:24;2.00;;;1.50;;
23747;SDS011;12054;53.662;10.126;2023-08-17T13:34:50;1.90;;;1.23;;
23747;SDS011;12054;53.662;10.126;2023-08-17T13:37:17;2.13;;;1.30;;
23747;SDS011;12054;53.662;10.126;2023-08-17T13:39:43;2.42;;;1.23;;
23747;SDS011;12054;53.662;10.126;2023-08-17T13:42:09;2.40;;;1.23;;
23747;SDS011;12054;53.662;10.126;2023-08-17T13:44:34;4.88;;;1.60;;
23747;SDS011;12054;53.662;10.126;2023-08-17T13:47:00;2.33;;;1.20;;
23747;SDS011;12054;53.662;10.126;2023-08-17T13:49:25;2.85;;;1.40;;
23747;SDS011;12054;53.662;10.126;2023-08-17T13:51:52;2.55;;;1.40;;
23747;SDS011;12054;53.662;10.126;2023-08-17T13:54:18;2.25;;;1.30;;
23747;SDS011;12054;53.662;10.126;2023-08-17T13:56:44;2.55;;;1.25;;
23747;SDS011;12054;53.662;10.126;2023-08-17T13:59:10;1.52;;;1.20;;
23747;SDS011;12054;53.662;10.126;2023-08-17T14:01:35;1.85;;;1.35;;
23747;SDS011;12054;53.662;10.126;2023-08-17T14:04:01;2.97;;;1.20;;
23747;SDS011;12054;53.662;10.126;2023-08-17T14:06:28;1.30;;;1.20;;
23747;SDS011;12054;53.662;10.126;2023-08-17T14:08:54;1.48;;;1.30;;
23747;SDS011;12054;53.662;10.126;2023-08-17T14:11:19;1.75;;;1.20;;
23747;SDS011;12054;53.662;10.126;2023-08-17T14:13:45;1.67;;;1.40;;
23747;SDS011;12054;53.662;10.126;2023-08-17T14:16:10;2.15;;;1.17;;
23747;SDS011;12054;53.662;10.126;2023-08-17T14:18:36;2.65;;;1.58;;
23747;SDS011;12054;53.662;10.126;2023-08-17T14:21:02;1.92;;;1.27;;
23747;SDS011;12054;53.662;10.126;2023-08-17T14:23:27;2.20;;;1.40;;
23747;SDS011;12054;53.662;10.126;2023-08-17T14:25:53;2.15;;;1.20;;
23747;SDS011;12054;53.662;10.126;2023-08-17T14:28:19;6.65;;;1.63;;
23747;SDS011;12054;53.662;10.126;2023-08-17T14:30:44;1.83;;;1.30;;
23747;SDS011;12054;53.662;10.126;2023-08-17T14:33:10;1.52;;;1.42;;
23747;SDS011;12054;53.662;10.126;2023-08-17T14:35:37;1.67;;;1.58;;